This is the latest recevied weather packets stored in our database for station/object CX2SA-13. If no packets are shown the sender has not sent any weather packets the latest 1 day(s).
| Time | Temp. | Humidity | Pressure | Rain* | Wind** | Luminosity | Snow |
|---|---|---|---|---|---|---|---|
| 1778116485 | 25° C | 85% | 1002 hPa | 0 mm | - | - | - |
| 1778115584 | 25.56° C | 84% | 1002 hPa | 0 mm | - | - | - |
| 1778114685 | 25.56° C | 84% | 1002.7 hPa | 0 mm | - | - | - |
| 1778113786 | 25.56° C | 83% | 1002 hPa | 0 mm | - | - | - |
| 1778112884 | 25.56° C | 83% | 1002.7 hPa | 0 mm | - | - | - |
| 1778108384 | 26.11° C | 82% | 1002.7 hPa | 0 mm | - | - | - |
| 1778104785 | 26.67° C | 81% | 1002.7 hPa | 0 mm | - | - | - |
| 1778103886 | 26.67° C | 81% | 1002.7 hPa | 0 mm | - | - | - |
| 1778098484 | 28.89° C | 76% | 1002.7 hPa | 0 mm | - | - | - |
| 1778097585 | 28.89° C | 76% | 1003 hPa | 0 mm | - | - | - |
| 1778093986 | 28.33° C | 79% | 1003.7 hPa | 0 mm | - | - | - |
| 1778091284 | 27.78° C | 80% | 1004.4 hPa | 0 mm | - | - | - |
| 1778087685 | 28.89° C | 76% | 1005 hPa | 0 mm | - | - | - |
| 1778078684 | 27.78° C | 81% | 1008.1 hPa | 0 mm | - | - | - |
| 1778077785 | 27.78° C | 81% | 1008.4 hPa | 0 mm | - | - | - |
| 1778075085 | 25.56° C | 87% | 1009.4 hPa | 0 mm | - | - | - |
| 1778074186 | 26.11° C | 86% | 1009.1 hPa | 0 mm | - | - | - |
| 1778071484 | 25° C | 90% | 1009.4 hPa | 0 mm | - | - | - |
| 1778068784 | 24.44° C | 92% | 1009.4 hPa | 0 mm | - | - | - |
| 1778066084 | 22.78° C | 95% | 1009.1 hPa | 0 mm | - | - | - |
| 1778065185 | 22.78° C | 95% | 1008.8 hPa | 0 mm | - | - | - |
| 1778063384 | 22.22° C | 96% | 1008.8 hPa | 0 mm | - | - | - |
| 1778062485 | 22.22° C | 96% | 1008.8 hPa | 0 mm | - | - | - |
| 1778061586 | 22.22° C | 96% | 1008.4 hPa | 0 mm | - | - | - |
| 1778059785 | 22.22° C | 97% | 1008.8 hPa | 0 mm | - | - | - |
* Rain since midnight (hover to see other rain measurements)
** Current wind speed in m/s (hover to see current wind gust speed)